createdAt,value
2019-05-22T00:00:52.640Z,24.97
2019-05-22T00:04:00.748Z,24.97
2019-05-22T00:07:08.203Z,23.97
2019-05-22T00:10:19.148Z,25.10
2019-05-22T00:13:31.014Z,24.27
2019-05-22T00:16:37.851Z,22.50
2019-05-22T00:19:44.864Z,21.93
2019-05-22T00:22:52.434Z,24.80
2019-05-22T00:25:57.602Z,23.03
2019-05-22T00:29:03.831Z,21.20
2019-05-22T00:32:10.045Z,21.20
2019-05-22T00:35:19.091Z,20.90
2019-05-22T00:38:25.320Z,21.17
2019-05-22T00:41:32.735Z,20.30
2019-05-22T00:44:38.197Z,21.57
2019-05-22T00:47:43.978Z,22.50
2019-05-22T00:51:00.951Z,22.03
2019-05-22T00:54:38.536Z,22.07
2019-05-22T00:57:50.066Z,22.83
2019-05-22T01:01:01.447Z,21.57
2019-05-22T01:04:10.163Z,24.40
2019-05-22T01:07:20.953Z,23.90
2019-05-22T01:10:29.257Z,20.57
2019-05-22T01:13:37.929Z,21.40
2019-05-22T01:16:43.502Z,20.07
2019-05-22T01:19:51.965Z,22.50
2019-05-22T01:22:59.898Z,21.17
2019-05-22T01:26:05.501Z,19.70
2019-05-22T01:29:11.471Z,20.47
2019-05-22T01:32:24.655Z,20.57
2019-05-22T01:35:35.916Z,20.17
2019-05-22T01:38:42.551Z,20.37
2019-05-22T01:41:51.109Z,19.90
2019-05-22T01:45:05.843Z,19.33
2019-05-22T01:48:08.836Z,21.17
2019-05-22T01:51:15.831Z,19.67
2019-05-22T01:54:21.942Z,19.97
2019-05-22T01:57:29.082Z,19.70
2019-05-22T02:00:36.217Z,21.07
2019-05-22T02:03:43.022Z,20.70
2019-05-22T02:06:48.694Z,27.80
2019-05-22T02:09:56.552Z,20.93
2019-05-22T02:13:05.635Z,21.60
2019-05-22T02:16:11.477Z,21.67
2019-05-22T02:19:18.357Z,19.87
2019-05-22T02:22:23.804Z,18.80
2019-05-22T02:25:32.270Z,21.87
2019-05-22T02:28:38.958Z,20.67
2019-05-22T02:31:44.531Z,20.87
2019-05-22T02:34:50.687Z,22.30
2019-05-22T02:37:56.191Z,23.50
2019-05-22T02:41:04.394Z,20.20
2019-05-22T02:44:10.061Z,22.63
2019-05-22T02:47:20.794Z,18.43
2019-05-22T02:50:24.647Z,22.87
2019-05-22T02:53:30.365Z,21.43
2019-05-22T02:56:36.179Z,21.53
2019-05-22T02:59:42.229Z,19.37
2019-05-22T03:02:53.399Z,22.63
2019-05-22T03:06:00.338Z,21.20
2019-05-22T03:09:24.486Z,20.10
2019-05-22T03:12:32.358Z,19.57
2019-05-22T03:15:37.564Z,21.87
2019-05-22T03:18:44.346Z,21.17
2019-05-22T03:21:49.579Z,22.77
2019-05-22T03:24:55.428Z,20.43
2019-05-22T03:28:02.288Z,20.37
2019-05-22T03:31:09.359Z,19.90
2019-05-22T03:34:14.535Z,20.37
2019-05-22T03:37:20.476Z,19.70
2019-05-22T03:40:28.584Z,19.63
2019-05-22T03:43:35.331Z,20.33
2019-05-22T03:46:46.251Z,19.07
2019-05-22T03:49:53.116Z,19.10
2019-05-22T03:53:01.521Z,19.23
2019-05-22T03:56:07.310Z,18.30
2019-05-22T03:59:12.834Z,15.77
2019-05-22T04:02:19.390Z,18.73
2019-05-22T04:05:25.145Z,18.93
2019-05-22T04:08:30.860Z,17.17
2019-05-22T04:11:39.058Z,19.60
2019-05-22T04:14:45.898Z,20.67
2019-05-22T04:17:51.170Z,17.17
2019-05-22T04:20:58.984Z,15.90
2019-05-22T04:24:04.151Z,15.07
2019-05-22T04:27:10.963Z,14.67
2019-05-22T04:30:17.848Z,14.03
2019-05-22T04:33:23.257Z,14.67
2019-05-22T04:36:29.327Z,13.60
2019-05-22T04:39:36.286Z,14.60
2019-05-22T04:42:41.463Z,15.07
2019-05-22T04:45:47.345Z,14.33
2019-05-22T04:48:53.918Z,14.17
2019-05-22T04:51:59.105Z,14.10
2019-05-22T04:55:04.899Z,14.00
2019-05-22T04:58:13.881Z,13.67
2019-05-22T05:01:21.127Z,13.60
2019-05-22T05:04:26.885Z,15.40
2019-05-22T05:07:32.541Z,14.63
2019-05-22T05:10:37.719Z,15.37
2019-05-22T05:13:42.837Z,14.53
2019-05-22T05:16:48.686Z,13.27
2019-05-22T05:19:53.813Z,12.10
2019-05-22T05:22:59.022Z,11.90
2019-05-22T05:26:07.345Z,13.33
2019-05-22T05:29:47.372Z,13.33
2019-05-22T05:32:52.640Z,13.93
2019-05-22T05:35:58.419Z,11.60
2019-05-22T05:39:07.112Z,14.67
2019-05-22T05:42:12.790Z,13.83
2019-05-22T05:45:18.522Z,19.33
2019-05-22T05:48:25.812Z,15.47
2019-05-22T05:51:35.925Z,14.60
2019-05-22T05:54:41.824Z,14.63
2019-05-22T05:58:32.925Z,14.23
2019-05-22T06:01:46.042Z,13.70
2019-05-22T06:04:52.791Z,14.57
2019-05-22T06:07:58.018Z,15.27
2019-05-22T06:11:39.179Z,16.30
2019-05-22T06:14:45.649Z,14.70
2019-05-22T06:18:27.287Z,16.17
2019-05-22T06:21:33.540Z,16.83
2019-05-22T06:24:59.768Z,14.20
2019-05-22T06:28:06.117Z,17.30
2019-05-22T06:31:17.569Z,15.70
2019-05-22T06:34:23.926Z,16.73
2019-05-22T06:37:36.960Z,17.43
2019-05-22T06:40:43.488Z,14.77
2019-05-22T06:44:25.023Z,17.50
2019-05-22T06:47:30.614Z,14.70
2019-05-22T06:50:36.249Z,15.93
2019-05-22T06:53:41.503Z,18.17
2019-05-22T06:56:46.677Z,13.80
2019-05-22T07:00:11.458Z,16.40
2019-05-22T07:02:59.708Z,13.97
2019-05-22T07:06:05.175Z,13.07
2019-05-22T07:09:10.396Z,14.37
2019-05-22T07:12:19.673Z,14.40
2019-05-22T07:15:43.954Z,14.93
2019-05-22T07:18:49.231Z,13.73
2019-05-22T07:21:54.550Z,14.23
2019-05-22T07:25:00.927Z,13.50
2019-05-22T07:28:07.949Z,12.53
2019-05-22T07:31:13.247Z,12.57
2019-05-22T07:34:19.261Z,11.87
2019-05-22T07:37:26.435Z,11.87
2019-05-22T07:40:32.101Z,12.03
2019-05-22T07:43:41.147Z,11.30
2019-05-22T07:46:44.052Z,13.67
2019-05-22T07:49:50.351Z,13.20
2019-05-22T07:52:56.448Z,11.77
2019-05-22T07:56:04.958Z,14.47
2019-05-22T07:59:11.562Z,10.77
2019-05-22T08:02:17.128Z,10.70
2019-05-22T08:05:25.493Z,10.90
2019-05-22T08:08:33.123Z,10.53
2019-05-22T08:11:38.686Z,9.73
2019-05-22T08:14:44.111Z,8.63
2019-05-22T08:17:49.411Z,7.53
2019-05-22T08:20:54.568Z,7.50
2019-05-22T08:23:59.870Z,8.10
2019-05-22T08:27:07.920Z,7.50
2019-05-22T08:30:13.647Z,8.40
2019-05-22T08:33:20.707Z,7.10
2019-05-22T08:36:26.524Z,7.67
2019-05-22T08:39:31.672Z,6.90
2019-05-22T08:42:37.793Z,6.47
2019-05-22T08:45:43.154Z,6.60
2019-05-22T08:48:49.396Z,6.97
2019-05-22T08:51:55.358Z,6.40
2019-05-22T08:55:01.765Z,5.83
2019-05-22T08:58:08.856Z,6.10
2019-05-22T09:01:15.076Z,5.30
2019-05-22T09:04:20.290Z,6.80
2019-05-22T09:07:26.646Z,6.00
2019-05-22T09:10:34.000Z,6.17
2019-05-22T09:13:39.378Z,7.30
2019-05-22T09:16:46.007Z,4.93
2019-05-22T09:19:51.505Z,5.87
2019-05-22T09:22:56.756Z,4.43
2019-05-22T09:26:02.258Z,5.43
2019-05-22T09:29:07.407Z,6.10
2019-05-22T09:32:12.640Z,5.50
2019-05-22T09:35:19.180Z,6.07
2019-05-22T09:38:25.858Z,5.03
2019-05-22T09:41:32.072Z,6.03
2019-05-22T09:44:37.367Z,5.33
2019-05-22T09:47:42.626Z,4.63
2019-05-22T09:50:47.887Z,4.70
2019-05-22T09:53:53.700Z,5.07
2019-05-22T09:56:58.937Z,4.60
2019-05-22T10:00:05.813Z,6.00
2019-05-22T10:03:11.656Z,3.77
2019-05-22T10:06:16.823Z,3.57
2019-05-22T10:09:22.062Z,3.30
2019-05-22T10:12:27.650Z,3.57
2019-05-22T10:15:34.398Z,4.67
2019-05-22T10:18:39.619Z,3.57
2019-05-22T10:21:45.184Z,2.80
2019-05-22T10:24:51.968Z,3.17
2019-05-22T10:27:59.414Z,3.30
2019-05-22T10:31:06.414Z,2.60
2019-05-22T10:34:12.379Z,2.63
2019-05-22T10:37:18.020Z,2.73
2019-05-22T10:40:24.146Z,2.83
2019-05-22T10:43:30.225Z,2.70
2019-05-22T10:46:35.396Z,4.80
2019-05-22T10:49:40.636Z,2.83
2019-05-22T10:52:46.477Z,2.83
2019-05-22T10:55:51.729Z,3.93
2019-05-22T10:58:57.006Z,2.23
2019-05-22T11:02:02.195Z,2.80
2019-05-22T11:05:07.639Z,2.62
2019-05-22T11:08:13.001Z,2.20
2019-05-22T11:11:18.416Z,2.87
2019-05-22T11:14:24.547Z,4.93
2019-05-22T11:17:30.078Z,2.20
2019-05-22T11:20:35.504Z,2.50
2019-05-22T11:23:51.086Z,2.30
2019-05-22T11:26:48.384Z,2.63
2019-05-22T11:29:53.774Z,2.70
2019-05-22T11:32:59.366Z,2.40
2019-05-22T11:36:05.517Z,3.07
2019-05-22T11:39:14.666Z,2.57
2019-05-22T11:42:20.142Z,5.00
2019-05-22T11:45:25.353Z,3.40
2019-05-22T11:48:30.840Z,3.20
2019-05-22T11:51:36.131Z,3.50
2019-05-22T11:54:41.441Z,2.10
2019-05-22T11:57:47.913Z,2.47
2019-05-22T12:00:53.318Z,3.93
2019-05-22T12:04:00.849Z,3.90
2019-05-22T12:07:07.081Z,3.40
2019-05-22T12:10:14.319Z,4.77
2019-05-22T12:13:20.396Z,3.93
2019-05-22T12:16:27.155Z,8.73
2019-05-22T12:19:32.458Z,4.43
2019-05-22T12:22:38.551Z,4.20
2019-05-22T12:25:43.696Z,5.03
2019-05-22T12:28:49.114Z,5.93
2019-05-22T12:31:54.429Z,6.40
2019-05-22T12:34:59.918Z,7.00
2019-05-22T12:38:06.553Z,5.00
2019-05-22T12:41:15.290Z,5.93
2019-05-22T12:44:21.124Z,5.53
2019-05-22T12:47:27.303Z,8.83
2019-05-22T12:50:33.194Z,7.10
2019-05-22T12:53:39.145Z,8.17
2019-05-22T12:56:45.959Z,6.13
2019-05-22T12:59:51.638Z,7.90
2019-05-22T13:02:58.667Z,8.43
2019-05-22T13:06:05.210Z,6.70
2019-05-22T13:09:12.733Z,6.93
2019-05-22T13:12:18.802Z,8.30
2019-05-22T13:15:25.384Z,10.33
2019-05-22T13:18:31.089Z,8.63
2019-05-22T13:21:39.476Z,9.37
2019-05-22T13:24:45.211Z,8.80
2019-05-22T13:27:52.357Z,9.50
2019-05-22T13:30:58.241Z,8.13
2019-05-22T13:34:04.769Z,7.80
2019-05-22T13:37:11.145Z,7.90
2019-05-22T13:40:27.245Z,7.53
2019-05-22T13:43:26.987Z,7.63
2019-05-22T13:46:32.560Z,8.23
2019-05-22T13:49:39.284Z,7.57
2019-05-22T13:52:44.969Z,8.67
2019-05-22T13:55:51.966Z,8.27
2019-05-22T13:58:57.409Z,8.80
2019-05-22T14:02:02.535Z,9.30
2019-05-22T14:05:08.308Z,7.73
2019-05-22T14:08:13.577Z,10.53
2019-05-22T14:11:19.148Z,7.93
2019-05-22T14:14:24.725Z,7.93
2019-05-22T14:17:29.919Z,8.10
2019-05-22T14:20:35.371Z,7.37
2019-05-22T14:23:40.932Z,8.50
2019-05-22T14:26:46.291Z,10.37
2019-05-22T14:29:51.626Z,9.13
2019-05-22T14:33:03.900Z,7.40
2019-05-22T14:36:07.257Z,8.10
2019-05-22T14:39:14.024Z,9.00
2019-05-22T14:42:19.914Z,9.37
2019-05-22T14:45:25.263Z,6.93
2019-05-22T14:48:30.486Z,7.30
2019-05-22T14:51:35.828Z,6.50
2019-05-22T14:54:41.276Z,7.50
2019-05-22T14:57:47.584Z,7.67
2019-05-22T15:00:54.705Z,6.63
2019-05-22T15:04:01.082Z,6.77
2019-05-22T15:07:07.715Z,7.50
2019-05-22T15:10:17.599Z,8.07
2019-05-22T15:13:23.633Z,6.73
2019-05-22T15:16:29.555Z,7.27
2019-05-22T15:19:35.332Z,7.87
2019-05-22T15:22:40.520Z,6.87
2019-05-22T15:25:45.939Z,6.20
2019-05-22T15:28:51.271Z,6.63
2019-05-22T15:31:56.702Z,6.53
2019-05-22T15:35:02.831Z,7.47
2019-05-22T15:38:10.766Z,6.53
2019-05-22T15:41:16.221Z,7.60
2019-05-22T15:44:22.373Z,7.30
2019-05-22T15:47:28.059Z,6.90
2019-05-22T15:50:35.119Z,8.17
2019-05-22T15:53:41.462Z,6.70
2019-05-22T15:56:48.317Z,6.80
2019-05-22T15:59:53.953Z,8.37
2019-05-22T16:02:59.849Z,7.73
2019-05-22T16:06:07.585Z,7.43
2019-05-22T16:09:16.286Z,10.03
2019-05-22T16:12:21.937Z,5.90
2019-05-22T16:15:28.159Z,5.97
2019-05-22T16:18:36.109Z,5.83
2019-05-22T16:21:46.902Z,6.23
2019-05-22T16:24:52.084Z,4.93
2019-05-22T16:27:57.212Z,4.80
2019-05-22T16:31:03.885Z,5.37
2019-05-22T16:34:09.155Z,8.00
2019-05-22T16:37:15.494Z,5.57
2019-05-22T16:40:22.122Z,4.97
2019-05-22T16:43:47.398Z,5.50
2019-05-22T16:46:36.292Z,5.47
2019-05-22T16:49:42.302Z,7.10
2019-05-22T16:52:47.567Z,6.40
2019-05-22T16:55:53.869Z,9.03
2019-05-22T16:58:59.397Z,6.57
2019-05-22T17:02:07.880Z,6.70
2019-05-22T17:05:15.121Z,6.93
2019-05-22T17:08:21.957Z,7.33
2019-05-22T17:11:28.837Z,7.80
2019-05-22T17:14:34.491Z,6.67
2019-05-22T17:17:39.646Z,6.90
2019-05-22T17:20:46.292Z,7.07
2019-05-22T17:23:51.968Z,8.37
2019-05-22T17:26:57.329Z,7.73
2019-05-22T17:30:03.488Z,7.73
2019-05-22T17:33:09.924Z,8.77
2019-05-22T17:36:16.598Z,6.63
2019-05-22T17:39:22.776Z,6.93
2019-05-22T17:42:29.142Z,7.77
2019-05-22T17:45:34.595Z,7.37
2019-05-22T17:48:41.358Z,8.10
2019-05-22T17:51:46.567Z,7.83
2019-05-22T17:54:53.020Z,8.10
2019-05-22T17:57:59.588Z,8.80
2019-05-22T18:01:08.346Z,10.03
2019-05-22T18:04:13.599Z,9.53
2019-05-22T18:07:19.741Z,9.23
2019-05-22T18:10:25.853Z,9.80
2019-05-22T18:13:32.114Z,8.80
2019-05-22T18:16:37.934Z,7.83
2019-05-22T18:19:43.311Z,13.20
2019-05-22T18:22:48.849Z,8.67
2019-05-22T18:25:54.212Z,8.43
2019-05-22T18:28:59.575Z,10.67
2019-05-22T18:32:06.702Z,8.73
2019-05-22T18:35:13.366Z,9.60
2019-05-22T18:38:18.553Z,13.93
2019-05-22T18:41:23.666Z,9.03
2019-05-22T18:44:28.870Z,11.30
2019-05-22T18:47:34.581Z,9.10
2019-05-22T18:50:39.930Z,9.47
2019-05-22T18:53:45.875Z,11.60
2019-05-22T18:56:51.121Z,10.70
2019-05-22T19:00:02.686Z,11.80
2019-05-22T19:03:04.218Z,10.17
2019-05-22T19:06:09.924Z,10.80
2019-05-22T19:09:16.871Z,12.97
2019-05-22T19:12:22.081Z,12.07
2019-05-22T19:15:27.449Z,13.23
2019-05-22T19:18:32.600Z,11.40
2019-05-22T19:21:37.875Z,10.80
2019-05-22T19:24:43.154Z,10.87
2019-05-22T19:27:48.507Z,15.13
2019-05-22T19:30:53.856Z,11.23
2019-05-22T19:33:59.435Z,12.00
2019-05-22T19:37:04.801Z,15.13
2019-05-22T19:40:12.514Z,13.83
2019-05-22T19:43:17.712Z,13.73
2019-05-22T19:46:23.118Z,12.83
2019-05-22T19:49:29.536Z,11.70
2019-05-22T19:52:41.478Z,17.00
2019-05-22T19:55:46.670Z,13.00
2019-05-22T19:58:52.084Z,13.33
2019-05-22T20:01:57.780Z,11.93
2019-05-22T20:05:04.137Z,12.73
2019-05-22T20:08:12.425Z,14.80
2019-05-22T20:11:17.992Z,15.97
2019-05-22T20:14:23.959Z,14.13
2019-05-22T20:17:29.306Z,13.57
2019-05-22T20:20:34.706Z,18.73
2019-05-22T20:23:40.089Z,14.20
2019-05-22T20:26:45.212Z,13.43
2019-05-22T20:29:51.175Z,13.23
2019-05-22T20:32:57.335Z,17.30
2019-05-22T20:36:03.142Z,18.77
2019-05-22T20:39:11.710Z,13.23
2019-05-22T20:42:16.952Z,12.27
2019-05-22T20:45:25.553Z,16.80
2019-05-22T20:48:30.890Z,15.90
2019-05-22T20:51:36.057Z,15.10
2019-05-22T20:54:43.429Z,12.10
2019-05-22T20:57:49.277Z,13.20
2019-05-22T21:00:54.744Z,14.17
2019-05-22T21:04:04.046Z,15.30
2019-05-22T21:07:10.183Z,14.70
2019-05-22T21:10:15.430Z,14.17
2019-05-22T21:13:20.724Z,17.33
2019-05-22T21:16:26.319Z,17.47
2019-05-22T21:19:32.420Z,15.43
2019-05-22T21:22:38.576Z,15.47
2019-05-22T21:25:44.163Z,22.63
2019-05-22T21:28:49.616Z,15.57
2019-05-22T21:31:55.247Z,13.00
2019-05-22T21:35:00.819Z,20.47
2019-05-22T21:38:06.225Z,14.47
2019-05-22T21:41:11.443Z,13.20
2019-05-22T21:44:16.700Z,18.73
2019-05-22T21:47:22.866Z,18.00
2019-05-22T21:50:31.858Z,18.37
2019-05-22T21:53:37.138Z,19.87
2019-05-22T21:56:44.512Z,17.00
2019-05-22T21:59:49.936Z,18.53
2019-05-22T22:02:57.155Z,18.20
2019-05-22T22:06:02.705Z,18.20
2019-05-22T22:09:08.882Z,15.73
2019-05-22T22:12:17.103Z,15.37
2019-05-22T22:15:22.462Z,16.87
2019-05-22T22:18:27.780Z,18.23
2019-05-22T22:21:33.404Z,17.00
2019-05-22T22:24:38.647Z,18.57
2019-05-22T22:27:44.469Z,18.80
2019-05-22T22:30:54.622Z,18.77
2019-05-22T22:34:06.104Z,15.77
2019-05-22T22:37:12.077Z,19.60
2019-05-22T22:40:18.922Z,20.93
2019-05-22T22:43:27.842Z,23.10
2019-05-22T22:46:43.543Z,19.10
2019-05-22T22:49:49.050Z,16.97
2019-05-22T22:52:55.442Z,19.03
2019-05-22T22:56:01.558Z,20.97
2019-05-22T22:59:07.939Z,15.90
2019-05-22T23:02:16.752Z,16.00
2019-05-22T23:05:22.257Z,18.23
2019-05-22T23:08:30.737Z,15.60
2019-05-22T23:11:38.605Z,17.30
2019-05-22T23:14:48.426Z,18.77
2019-05-22T23:17:53.849Z,18.97
2019-05-22T23:20:57.295Z,16.73
2019-05-22T23:24:03.400Z,19.20
2019-05-22T23:27:10.573Z,22.53
2019-05-22T23:30:18.597Z,21.03
2019-05-22T23:33:23.853Z,21.33
2019-05-22T23:36:29.936Z,20.03
2019-05-22T23:39:36.108Z,17.23
2019-05-22T23:42:44.093Z,15.00
2019-05-22T23:45:50.968Z,15.23
2019-05-22T23:48:56.461Z,15.40
2019-05-22T23:52:02.342Z,19.13
2019-05-22T23:55:09.804Z,17.07
2019-05-22T23:58:16.603Z,14.83
